createdAt,value
2017-11-18T00:01:38.346Z,94679.05
2017-11-18T00:04:06.091Z,94674.09
2017-11-18T00:06:33.821Z,94676.27
2017-11-18T00:09:01.582Z,94671.04
2017-11-18T00:11:29.285Z,94672.09
2017-11-18T00:13:57.024Z,94676.02
2017-11-18T00:16:24.724Z,94674.98
2017-11-18T00:18:52.409Z,94677.12
2017-11-18T00:21:20.162Z,94674.80
2017-11-18T00:23:47.884Z,94680.98
2017-11-18T00:26:15.587Z,94675.77
2017-11-18T00:28:43.308Z,94672.15
2017-11-18T00:31:11.852Z,94675.22
2017-11-18T00:33:39.582Z,94673.93
2017-11-18T00:36:07.389Z,94664.87
2017-11-18T00:38:35.141Z,94666.71
2017-11-18T00:41:02.932Z,94663.66
2017-11-18T00:43:30.658Z,94667.02
2017-11-18T00:45:58.531Z,94661.16
2017-11-18T00:48:26.239Z,94661.33
2017-11-18T00:50:53.990Z,94663.02
2017-11-18T00:53:21.702Z,94660.13
2017-11-18T00:55:49.445Z,94659.33
2017-11-18T00:58:17.123Z,94659.81
2017-11-18T01:00:45.027Z,94660.69
2017-11-18T01:03:12.717Z,94660.05
2017-11-18T01:05:40.419Z,94660.84
2017-11-18T01:08:08.144Z,94656.59
2017-11-18T01:10:35.868Z,94650.99
2017-11-18T01:13:03.609Z,94651.07
2017-11-18T01:15:31.307Z,94647.78
2017-11-18T01:17:59.010Z,94647.30
2017-11-18T01:20:26.769Z,94640.64
2017-11-18T01:22:54.479Z,94644.58
2017-11-18T01:25:22.190Z,94642.73
2017-11-18T01:27:49.932Z,94638.55
2017-11-18T01:30:17.608Z,94630.30
2017-11-18T01:32:45.314Z,94628.86
2017-11-18T01:35:13.133Z,94627.73
2017-11-18T01:37:40.830Z,94626.36
2017-11-18T01:40:08.606Z,94629.91
2017-11-18T01:42:36.325Z,94628.14
2017-11-18T01:45:04.089Z,94625.81
2017-11-18T01:47:31.814Z,94620.34
2017-11-18T01:49:59.562Z,94625.58
2017-11-18T01:52:27.274Z,94619.73
2017-11-18T01:54:55.088Z,94614.67
2017-11-18T01:57:22.915Z,94616.60
2017-11-18T01:59:50.632Z,94615.00
2017-11-18T02:02:30.131Z,94610.51
2017-11-18T02:04:57.951Z,94614.27
2017-11-18T02:07:25.654Z,94606.98
2017-11-18T02:09:53.418Z,94613.08
2017-11-18T02:12:21.116Z,94607.55
2017-11-18T02:14:48.825Z,94603.83
2017-11-18T02:17:16.605Z,94607.84
2017-11-18T02:19:44.316Z,94603.19
2017-11-18T02:22:12.733Z,94596.61
2017-11-18T02:24:40.543Z,94593.16
2017-11-18T02:27:08.365Z,94594.55
2017-11-18T02:29:36.064Z,94588.75
2017-11-18T02:32:03.942Z,94592.68
2017-11-18T02:34:31.784Z,94585.66
2017-11-18T02:36:59.528Z,94584.27
2017-11-18T02:39:27.315Z,94582.19
2017-11-18T02:41:55.262Z,94581.95
2017-11-18T02:44:22.996Z,94580.84
2017-11-18T02:46:50.768Z,94581.55
2017-11-18T02:49:18.529Z,94585.73
2017-11-18T02:51:46.419Z,94578.83
2017-11-18T02:54:14.205Z,94582.59
2017-11-18T02:56:41.993Z,94568.40
2017-11-18T02:59:09.769Z,94582.83
2017-11-18T03:01:37.549Z,94573.61
2017-11-18T03:04:05.263Z,94568.40
2017-11-18T03:06:33.014Z,94570.67
2017-11-18T03:09:00.756Z,94568.34
2017-11-18T03:11:28.495Z,94568.72
2017-11-18T03:13:56.307Z,94574.98
2017-11-18T03:16:24.064Z,94575.39
2017-11-18T03:18:51.813Z,94570.17
2017-11-18T03:21:19.580Z,94564.80
2017-11-18T03:23:47.385Z,94565.92
2017-11-18T03:26:15.066Z,94567.37
2017-11-18T03:28:42.841Z,94560.80
2017-11-18T03:31:10.560Z,94564.73
2017-11-18T03:33:38.280Z,94559.92
2017-11-18T03:36:06.043Z,94554.77
2017-11-18T03:38:34.920Z,94554.31
2017-11-18T03:41:02.626Z,94557.04
2017-11-18T03:43:30.413Z,94561.66
2017-11-18T03:45:58.163Z,94549.66
2017-11-18T03:48:25.906Z,94552.94
2017-11-18T03:50:53.860Z,94553.66
2017-11-18T03:53:21.627Z,94556.63
2017-11-18T03:55:49.371Z,94552.23
2017-11-18T03:58:17.130Z,94553.99
2017-11-18T04:00:50.438Z,94555.02
2017-11-18T04:03:18.168Z,94551.83
2017-11-18T04:05:46.123Z,94554.77
2017-11-18T04:08:13.857Z,94554.21
2017-11-18T04:10:41.670Z,94553.41
2017-11-18T04:13:09.469Z,94545.82
2017-11-18T04:15:37.168Z,94547.98
2017-11-18T04:18:04.959Z,94546.94
2017-11-18T04:20:32.669Z,94547.83
2017-11-18T04:23:00.386Z,94546.11
2017-11-18T04:25:28.117Z,94546.05
2017-11-18T04:27:55.874Z,94539.39
2017-11-18T04:30:23.606Z,94547.73
2017-11-18T04:32:51.332Z,94544.61
2017-11-18T04:35:19.059Z,94545.57
2017-11-18T04:37:46.809Z,94546.61
2017-11-18T04:40:14.582Z,94546.77
2017-11-18T04:42:42.323Z,94545.01
2017-11-18T04:45:10.290Z,94545.32
2017-11-18T04:47:38.010Z,94552.77
2017-11-18T04:50:05.837Z,94550.94
2017-11-18T04:52:33.572Z,94548.61
2017-11-18T04:55:01.336Z,94552.86
2017-11-18T04:57:29.020Z,94551.57
2017-11-18T04:59:56.721Z,94559.50
2017-11-18T05:02:24.458Z,94549.80
2017-11-18T05:04:52.152Z,94551.98
2017-11-18T05:07:19.913Z,94550.20
2017-11-18T05:09:47.706Z,94545.40
2017-11-18T05:12:15.412Z,94549.56
2017-11-18T05:14:43.339Z,94542.27
2017-11-18T05:17:11.074Z,94548.04
2017-11-18T05:19:38.754Z,94549.75
2017-11-18T05:22:06.531Z,94552.86
2017-11-18T05:24:34.223Z,94553.09
2017-11-18T05:27:02.012Z,94545.66
2017-11-18T05:29:29.720Z,94554.48
2017-11-18T05:31:57.448Z,94550.28
2017-11-18T05:34:25.258Z,94549.96
2017-11-18T05:36:53.041Z,94549.90
2017-11-18T05:39:20.798Z,94551.33
2017-11-18T05:41:48.520Z,94551.08
2017-11-18T05:44:16.321Z,94547.88
2017-11-18T05:46:44.071Z,94541.48
2017-11-18T05:49:11.788Z,94547.72
2017-11-18T05:51:39.616Z,94538.58
2017-11-18T05:54:07.357Z,94544.61
2017-11-18T05:56:35.068Z,94536.84
2017-11-18T05:59:03.352Z,94545.09
2017-11-18T06:01:31.176Z,94542.52
2017-11-18T06:03:58.918Z,94542.03
2017-11-18T06:06:26.677Z,94538.84
2017-11-18T06:08:54.390Z,94537.80
2017-11-18T06:11:22.164Z,94532.27
2017-11-18T06:13:50.054Z,94537.55
2017-11-18T06:16:17.812Z,94538.58
2017-11-18T06:18:45.596Z,94532.02
2017-11-18T06:21:13.345Z,94534.68
2017-11-18T06:23:41.053Z,94538.53
2017-11-18T06:26:08.829Z,94536.13
2017-11-18T06:28:36.502Z,94538.13
2017-11-18T06:31:04.233Z,94539.09
2017-11-18T06:33:31.999Z,94539.78
2017-11-18T06:35:59.766Z,94548.14
2017-11-18T06:38:27.531Z,94542.98
2017-11-18T06:40:55.238Z,94543.48
2017-11-18T06:43:22.998Z,94550.36
2017-11-18T06:45:50.704Z,94542.22
2017-11-18T06:48:18.579Z,94549.82
2017-11-18T06:50:47.183Z,94548.77
2017-11-18T06:53:14.876Z,94549.50
2017-11-18T06:55:42.612Z,94540.19
2017-11-18T06:58:10.353Z,94541.25
2017-11-18T07:00:38.136Z,94544.52
2017-11-18T07:03:06.000Z,94551.18
2017-11-18T07:05:33.981Z,94548.30
2017-11-18T07:08:01.688Z,94546.70
2017-11-18T07:10:29.403Z,94550.52
2017-11-18T07:12:57.142Z,94550.13
2017-11-18T07:15:24.990Z,94545.56
2017-11-18T07:17:52.758Z,94548.36
2017-11-18T07:20:20.552Z,94545.50
2017-11-18T07:22:49.970Z,94550.36
2017-11-18T07:25:17.673Z,94547.72
2017-11-18T07:27:45.410Z,94547.23
2017-11-18T07:30:13.165Z,94552.29
2017-11-18T07:32:40.912Z,94551.01
2017-11-18T07:35:08.664Z,94551.02
2017-11-18T07:37:36.561Z,94552.59
2017-11-18T07:40:05.480Z,94550.02
2017-11-18T07:42:33.312Z,94546.66
2017-11-18T07:45:01.223Z,94545.13
2017-11-18T07:47:28.966Z,94538.64
2017-11-18T07:49:56.709Z,94539.20
2017-11-18T07:52:24.488Z,94539.36
2017-11-18T07:54:52.337Z,94535.75
2017-11-18T07:57:20.252Z,94536.44
2017-11-18T07:59:48.076Z,94533.70
2017-11-18T08:02:15.812Z,94542.70
2017-11-18T08:04:43.591Z,94528.77
2017-11-18T08:07:11.411Z,94533.34
2017-11-18T08:09:39.184Z,94526.92
2017-11-18T08:12:07.956Z,94521.51
2017-11-18T08:14:35.729Z,94518.81
2017-11-18T08:17:03.451Z,94518.25
2017-11-18T08:19:31.832Z,94522.57
2017-11-18T08:21:59.555Z,94514.87
2017-11-18T08:24:28.606Z,94516.95
2017-11-18T08:26:57.298Z,94519.22
2017-11-18T08:29:25.063Z,94513.75
2017-11-18T08:31:53.983Z,94520.05
2017-11-18T08:34:21.906Z,94511.57
2017-11-18T08:36:49.681Z,94510.97
2017-11-18T08:39:17.419Z,94510.58
2017-11-18T08:41:45.212Z,94511.17
2017-11-18T08:44:12.994Z,94514.51
2017-11-18T08:46:40.809Z,94516.58
2017-11-18T08:49:08.551Z,94516.47
2017-11-18T08:51:36.242Z,94518.01
2017-11-18T08:54:04.125Z,94516.34
2017-11-18T08:56:31.927Z,94512.55
2017-11-18T08:58:59.787Z,94507.69
2017-11-18T09:01:27.525Z,94514.98
2017-11-18T09:03:56.102Z,94512.21
2017-11-18T09:06:23.910Z,94509.75
2017-11-18T09:08:51.928Z,94510.12
2017-11-18T09:11:19.769Z,94509.14
2017-11-18T09:13:47.713Z,94511.56
2017-11-18T09:16:15.559Z,94508.41
2017-11-18T09:18:43.615Z,94506.31
2017-11-18T09:21:11.411Z,94504.69
2017-11-18T09:23:39.162Z,94505.20
2017-11-18T09:26:06.986Z,94502.66
2017-11-18T09:28:34.807Z,94501.35
2017-11-18T09:31:02.552Z,94494.75
2017-11-18T09:33:30.367Z,94495.16
2017-11-18T09:35:58.240Z,94490.50
2017-11-18T09:38:26.036Z,94493.36
2017-11-18T09:40:53.772Z,94488.02
2017-11-18T09:43:21.597Z,94480.53
2017-11-18T09:45:49.344Z,94480.23
2017-11-18T09:48:17.072Z,94476.47
2017-11-18T09:50:44.809Z,94479.80
2017-11-18T09:53:12.571Z,94476.83
2017-11-18T09:55:40.319Z,94465.33
2017-11-18T09:58:08.292Z,94470.20
2017-11-18T10:00:36.128Z,94459.87
2017-11-18T10:03:03.958Z,94462.20
2017-11-18T10:05:31.758Z,94458.20
2017-11-18T10:07:59.500Z,94452.33
2017-11-18T10:10:27.296Z,94448.80
2017-11-18T10:12:55.159Z,94447.72
2017-11-18T10:15:22.970Z,94442.61
2017-11-18T10:17:50.820Z,94430.89
2017-11-18T10:20:18.674Z,94426.70
2017-11-18T10:22:46.584Z,94415.06
2017-11-18T10:25:14.351Z,94419.42
2017-11-18T10:27:42.152Z,94419.36
2017-11-18T10:30:10.066Z,94416.13
2017-11-18T10:32:37.863Z,94420.34
2017-11-18T10:35:05.699Z,94409.41
2017-11-18T10:37:33.518Z,94408.88
2017-11-18T10:40:01.301Z,94408.39
2017-11-18T10:42:29.071Z,94399.75
2017-11-18T10:44:57.987Z,94398.16
2017-11-18T10:47:25.748Z,94399.30
2017-11-18T10:49:55.416Z,94399.71
2017-11-18T10:52:23.293Z,94389.63
2017-11-18T10:54:51.039Z,94392.64
2017-11-18T10:57:19.071Z,94390.33
2017-11-18T10:59:46.769Z,94390.48
2017-11-18T11:02:14.480Z,94393.67
2017-11-18T11:04:42.287Z,94391.09
2017-11-18T11:07:09.994Z,94382.70
2017-11-18T11:09:37.760Z,94392.47
2017-11-18T11:12:06.330Z,94392.97
2017-11-18T11:14:34.045Z,94383.47
2017-11-18T11:17:01.926Z,94381.67
2017-11-18T11:19:29.797Z,94385.10
2017-11-18T11:21:57.494Z,94375.37
2017-11-18T11:24:26.302Z,94373.44
2017-11-18T11:26:54.107Z,94366.42
2017-11-18T11:29:21.909Z,94362.41
2017-11-18T11:31:49.661Z,94366.99
2017-11-18T11:34:17.414Z,94354.90
2017-11-18T11:36:45.221Z,94354.63
2017-11-18T11:39:12.982Z,94353.05
2017-11-18T11:41:40.744Z,94347.07
2017-11-18T11:44:09.391Z,94346.00
2017-11-18T11:46:37.395Z,94339.45
2017-11-18T11:49:05.151Z,94337.48
2017-11-18T11:51:33.752Z,94338.64
2017-11-18T11:54:01.560Z,94324.91
2017-11-18T11:56:29.435Z,94332.38
2017-11-18T11:58:58.173Z,94317.55
2017-11-18T12:01:25.942Z,94319.66
2017-11-18T12:03:53.722Z,94324.05
2017-11-18T12:06:21.555Z,94315.50
2017-11-18T12:08:49.307Z,94309.44
2017-11-18T12:11:17.175Z,94313.05
2017-11-18T12:13:44.921Z,94309.25
2017-11-18T12:16:12.817Z,94305.59
2017-11-18T12:18:40.627Z,94300.95
2017-11-18T12:21:09.009Z,94293.11
2017-11-18T12:23:36.845Z,94294.94
2017-11-18T12:26:04.573Z,94290.82
2017-11-18T12:28:32.334Z,94285.87
2017-11-18T12:31:00.233Z,94278.77
2017-11-18T12:33:28.078Z,94278.28
2017-11-18T12:35:55.859Z,94275.48
2017-11-18T12:38:23.781Z,94269.02
2017-11-18T12:40:51.619Z,94261.63
2017-11-18T12:43:19.383Z,94260.30
2017-11-18T12:45:47.178Z,94256.84
2017-11-18T12:48:14.985Z,94250.98
2017-11-18T12:50:42.908Z,94239.27
2017-11-18T12:53:11.289Z,94249.05
2017-11-18T12:55:39.082Z,94241.52
2017-11-18T12:58:06.822Z,94232.39
2017-11-18T13:00:35.435Z,94234.88
2017-11-18T13:03:04.019Z,94234.38
2017-11-18T13:05:31.783Z,94239.33
2017-11-18T13:07:59.568Z,94236.00
2017-11-18T13:10:27.398Z,94230.33
2017-11-18T13:12:55.942Z,94231.06
2017-11-18T13:15:23.663Z,94229.56
2017-11-18T13:17:52.995Z,94233.55
2017-11-18T13:20:20.704Z,94222.73
2017-11-18T13:22:49.391Z,94218.42
2017-11-18T13:25:17.159Z,94222.93
2017-11-18T13:27:44.991Z,94217.55
2017-11-18T13:30:12.837Z,94218.53
2017-11-18T13:32:40.736Z,94218.64
2017-11-18T13:35:08.541Z,94218.45
2017-11-18T13:37:36.361Z,94217.94
2017-11-18T13:40:04.094Z,94212.72
2017-11-18T13:42:31.845Z,94214.84
2017-11-18T13:44:59.539Z,94213.28
2017-11-18T13:47:27.238Z,94213.47
2017-11-18T13:49:54.997Z,94209.09
2017-11-18T13:52:22.709Z,94207.00
2017-11-18T13:54:50.438Z,94207.14
2017-11-18T13:57:18.146Z,94204.16
2017-11-18T13:59:45.908Z,94202.13
2017-11-18T14:02:13.764Z,94199.61
2017-11-18T14:04:41.601Z,94202.74
2017-11-18T14:07:09.368Z,94206.62
2017-11-18T14:09:38.420Z,94197.95
2017-11-18T14:12:06.183Z,94200.04
2017-11-18T14:14:33.906Z,94199.22
2017-11-18T14:17:01.767Z,94191.80
2017-11-18T14:19:29.548Z,94190.77
2017-11-18T14:21:57.363Z,94192.05
2017-11-18T14:24:25.197Z,94188.75
2017-11-18T14:26:53.013Z,94187.92
2017-11-18T14:29:20.718Z,94185.37
2017-11-18T14:31:48.493Z,94176.45
2017-11-18T14:34:17.355Z,94184.30
2017-11-18T14:36:45.185Z,94177.77
2017-11-18T14:39:12.971Z,94179.28
2017-11-18T14:41:40.789Z,94180.25
2017-11-18T14:44:10.446Z,94177.87
2017-11-18T14:46:38.207Z,94177.63
2017-11-18T14:49:06.345Z,94173.69
2017-11-18T14:51:34.060Z,94179.77
2017-11-18T14:54:01.809Z,94173.53
2017-11-18T14:56:29.608Z,94174.33
2017-11-18T14:58:57.391Z,94173.22
2017-11-18T15:01:25.166Z,94175.75
2017-11-18T15:03:53.051Z,94165.70
2017-11-18T15:06:20.887Z,94175.67
2017-11-18T15:08:48.763Z,94175.28
2017-11-18T15:11:16.573Z,94179.77
2017-11-18T15:13:44.376Z,94171.26
2017-11-18T15:16:18.954Z,94162.05
2017-11-18T15:18:56.170Z,94174.34
2017-11-18T15:21:27.596Z,94176.02
2017-11-18T15:24:00.785Z,94172.82
2017-11-18T15:26:29.430Z,94175.70
2017-11-18T15:29:11.628Z,94176.03
2017-11-18T15:35:10.725Z,94180.59
2017-11-18T15:37:43.387Z,94171.70
2017-11-18T15:40:11.232Z,94171.34
2017-11-18T15:42:39.152Z,94176.55
2017-11-18T15:45:09.402Z,94175.85
2017-11-18T15:47:42.746Z,94186.11
2017-11-18T15:50:16.175Z,94185.56
2017-11-18T15:52:49.420Z,94179.36
2017-11-18T15:55:20.270Z,94178.11
2017-11-18T15:57:48.165Z,94185.41
2017-11-18T16:00:16.084Z,94180.17
2017-11-18T16:05:45.171Z,94187.53
2017-11-18T16:08:13.979Z,94189.70
2017-11-18T16:10:41.745Z,94193.34
2017-11-18T16:13:09.531Z,94189.30
2017-11-18T16:15:37.345Z,94187.61
2017-11-18T16:18:05.302Z,94199.18
2017-11-18T16:20:33.166Z,94195.72
2017-11-18T16:23:00.944Z,94199.18
2017-11-18T16:25:28.776Z,94198.84
2017-11-18T16:27:56.629Z,94201.92
2017-11-18T16:30:24.468Z,94203.55
2017-11-18T16:32:52.311Z,94198.70
2017-11-18T16:35:20.574Z,94199.55
2017-11-18T16:37:48.444Z,94199.75
2017-11-18T16:40:16.297Z,94201.20
2017-11-18T16:42:44.950Z,94206.34
2017-11-18T16:45:12.788Z,94204.86
2017-11-18T16:47:40.661Z,94203.63
2017-11-18T16:50:08.524Z,94217.86
2017-11-18T16:52:36.340Z,94213.30
2017-11-18T16:55:04.089Z,94213.48
2017-11-18T16:57:31.955Z,94215.39
2017-11-18T16:59:59.844Z,94216.44
2017-11-18T17:02:27.703Z,94215.93
2017-11-18T17:04:55.796Z,94227.54
2017-11-18T17:07:23.528Z,94224.19
2017-11-18T17:09:51.376Z,94227.67
2017-11-18T17:12:19.224Z,94226.07
2017-11-18T17:14:46.997Z,94220.77
2017-11-18T17:17:14.824Z,94224.70
2017-11-18T17:19:42.656Z,94222.78
2017-11-18T17:22:10.458Z,94225.78
2017-11-18T17:24:38.361Z,94226.87
2017-11-18T17:27:06.210Z,94230.16
2017-11-18T17:29:34.517Z,94229.55
2017-11-18T17:32:02.334Z,94227.62
2017-11-18T17:34:30.189Z,94228.70
2017-11-18T17:36:58.015Z,94230.52
2017-11-18T17:39:25.971Z,94228.12
2017-11-18T17:41:53.920Z,94230.63
2017-11-18T17:44:21.660Z,94227.09
2017-11-18T17:46:49.505Z,94227.50
2017-11-18T17:49:17.353Z,94226.67
2017-11-18T17:51:45.582Z,94230.67
2017-11-18T17:54:13.468Z,94221.64
2017-11-18T17:56:41.331Z,94222.92
2017-11-18T17:59:09.126Z,94219.48
2017-11-18T18:01:36.868Z,94221.65
2017-11-18T18:04:04.644Z,94211.54
2017-11-18T18:06:32.398Z,94213.70
2017-11-18T18:09:00.270Z,94201.55
2017-11-18T18:11:28.996Z,94201.37
2017-11-18T18:13:56.896Z,94206.45
2017-11-18T18:16:24.710Z,94202.77
2017-11-18T18:18:52.425Z,94200.08
2017-11-18T18:21:20.202Z,94204.75
2017-11-18T18:23:47.910Z,94197.20
2017-11-18T18:26:15.661Z,94196.66
2017-11-18T18:28:43.473Z,94200.59
2017-11-18T18:31:12.538Z,94195.85
2017-11-18T18:33:40.289Z,94191.45
2017-11-18T18:36:07.991Z,94186.58
2017-11-18T18:38:36.171Z,94180.42
2017-11-18T18:41:04.016Z,94179.52
2017-11-18T18:43:31.965Z,94178.47
2017-11-18T18:46:00.578Z,94170.63
2017-11-18T18:48:28.451Z,94181.64
2017-11-18T18:50:56.264Z,94176.80
2017-11-18T18:53:24.922Z,94176.56
2017-11-18T18:55:52.737Z,94166.53
2017-11-18T18:58:20.548Z,94163.67
2017-11-18T19:00:48.381Z,94170.86
2017-11-18T19:03:16.253Z,94177.75
2017-11-18T19:05:44.471Z,94171.98
2017-11-18T19:08:12.332Z,94175.73
2017-11-18T19:10:40.197Z,94177.92
2017-11-18T19:13:08.102Z,94177.91
2017-11-18T19:15:36.961Z,94177.53
2017-11-18T19:18:05.025Z,94167.41
2017-11-18T19:20:32.929Z,94166.88
2017-11-18T19:23:00.687Z,94166.56
2017-11-18T19:25:28.497Z,94163.27
2017-11-18T19:27:56.380Z,94164.69
2017-11-18T19:30:24.977Z,94157.83
2017-11-18T19:32:52.932Z,94160.09
2017-11-18T19:35:21.112Z,94158.39
2017-11-18T19:37:48.976Z,94158.45
2017-11-18T19:40:16.789Z,94156.63
2017-11-18T19:42:44.746Z,94162.95
2017-11-18T19:45:12.794Z,94166.45
2017-11-18T19:47:40.754Z,94176.29
2017-11-18T19:50:08.676Z,94173.16
2017-11-18T19:52:36.440Z,94179.17
2017-11-18T19:55:04.384Z,94181.48
2017-11-18T19:57:32.345Z,94165.96
2017-11-18T20:00:00.421Z,94172.12
2017-11-18T20:02:28.292Z,94165.81
2017-11-18T20:04:56.089Z,94167.56
2017-11-18T20:07:24.021Z,94172.61
2017-11-18T20:09:51.878Z,94166.69
2017-11-18T20:12:19.993Z,94172.84
2017-11-18T20:14:48.232Z,94181.24
2017-11-18T20:17:17.618Z,94173.72
2017-11-18T20:19:45.711Z,94173.08
2017-11-18T20:22:13.691Z,94169.80
2017-11-18T20:24:41.981Z,94174.77
2017-11-18T20:27:09.883Z,94177.02
2017-11-18T20:29:37.909Z,94179.05
2017-11-18T20:32:05.910Z,94164.66
2017-11-18T20:34:34.369Z,94165.94
2017-11-18T20:37:02.142Z,94154.41
2017-11-18T20:39:29.914Z,94147.78
2017-11-18T20:41:57.662Z,94152.57
2017-11-18T20:44:26.325Z,94160.58
2017-11-18T20:46:54.147Z,94159.01
2017-11-18T20:49:23.153Z,94162.73
2017-11-18T20:51:50.967Z,94149.78
2017-11-18T20:54:18.805Z,94153.85
2017-11-18T20:56:46.634Z,94151.22
2017-11-18T20:59:15.641Z,94148.29
2017-11-18T21:01:43.422Z,94147.09
2017-11-18T21:04:11.161Z,94145.30
2017-11-18T21:06:38.940Z,94136.81
2017-11-18T21:09:06.709Z,94133.33
2017-11-18T21:11:34.589Z,94143.46
2017-11-18T21:14:03.341Z,94138.49
2017-11-18T21:16:31.077Z,94132.61
2017-11-18T21:19:00.171Z,94128.80
2017-11-18T21:21:27.925Z,94140.41
2017-11-18T21:23:55.708Z,94145.70
2017-11-18T21:26:23.551Z,94142.28
2017-11-18T21:28:51.230Z,94138.97
2017-11-18T21:31:18.974Z,94141.36
2017-11-18T21:33:46.719Z,94143.36
2017-11-18T21:36:15.108Z,94137.69
2017-11-18T21:38:42.855Z,94132.57
2017-11-18T21:41:10.606Z,94132.20
2017-11-18T21:43:38.321Z,94135.41
2017-11-18T21:46:06.105Z,94139.42
2017-11-18T21:48:33.913Z,94146.36
2017-11-18T21:51:02.578Z,94154.80
2017-11-18T21:53:30.280Z,94141.89
2017-11-18T21:55:58.155Z,94144.12
2017-11-18T21:58:25.826Z,94136.81
2017-11-18T22:00:53.586Z,94132.34
2017-11-18T22:03:21.285Z,94131.05
2017-11-18T22:05:48.993Z,94123.20
2017-11-18T22:08:16.757Z,94129.25
2017-11-18T22:10:44.510Z,94128.72
2017-11-18T22:13:12.199Z,94126.58
2017-11-18T22:15:39.935Z,94126.38
2017-11-18T22:18:07.602Z,94127.46
2017-11-18T22:20:35.369Z,94121.20
2017-11-18T22:23:03.184Z,94121.66
2017-11-18T22:25:30.918Z,94116.36
2017-11-18T22:27:58.709Z,94106.50
2017-11-18T22:30:26.460Z,94104.92
2017-11-18T22:32:54.267Z,94100.81
2017-11-18T22:35:22.069Z,94101.25
2017-11-18T22:37:49.767Z,94098.56
2017-11-18T22:40:17.523Z,94090.42
2017-11-18T22:42:45.238Z,94094.41
2017-11-18T22:45:12.970Z,94092.92
2017-11-18T22:47:40.807Z,94089.85
2017-11-18T22:50:08.516Z,94083.83
2017-11-18T22:52:36.301Z,94087.20
2017-11-18T22:55:04.101Z,94084.53
2017-11-18T22:57:32.084Z,94082.12
2017-11-18T22:59:59.903Z,94069.72
2017-11-18T23:02:27.745Z,94080.61
2017-11-18T23:04:55.425Z,94065.55
2017-11-18T23:07:23.160Z,94077.95
2017-11-18T23:09:50.897Z,94065.25
2017-11-18T23:12:18.654Z,94064.76
2017-11-18T23:14:46.405Z,94064.09
2017-11-18T23:17:14.096Z,94063.66
2017-11-18T23:19:41.852Z,94065.91
2017-11-18T23:22:09.549Z,94058.30
2017-11-18T23:24:37.305Z,94060.45
2017-11-18T23:27:05.009Z,94044.70
2017-11-18T23:29:32.712Z,94061.61
2017-11-18T23:32:00.471Z,94054.49
2017-11-18T23:34:28.202Z,94054.89
2017-11-18T23:36:55.930Z,94047.16
2017-11-18T23:39:23.632Z,94054.89
2017-11-18T23:41:51.377Z,94051.36
2017-11-18T23:44:19.110Z,94053.00
2017-11-18T23:46:46.805Z,94053.58
2017-11-18T23:49:14.554Z,94050.03
2017-11-18T23:51:42.251Z,94040.64
2017-11-18T23:54:09.977Z,94049.47
2017-11-18T23:56:37.770Z,94039.80
2017-11-18T23:59:05.467Z,94039.14
